DXB weather

Dubai International Airport
Dubai, Dubai Emirate, United Arab Emirates

Public forecast

Using degrees Celsius for public forecast. Weather courtesy of forecast.io.

METAR (pilot weather report)

Retrieved 2018/08/16 05:00 UTC (2 minutes ago):

OMDB 160500Z 05005KT 010V110 8000 NSC 38/22 Q0999 NOSIG

TAF (pilot weather forecast)

Forecast is more than 12 hours old.

Retrieved 2018/08/15 00:00 UTC (1 day ago):

TAF OMDB 152303Z 1600/1706 08005KT 8000 NSC PROB30 1600/1604 4000 HZ BECMG 1608/1610 33014KT BECMG 1616/1618 05005KT